Time;durP1;ratioP1;P1;durP2;ratioP2;P2;SDS_P1;SDS_P2;PMS_P1;PMS_P2;Temp;Humidity;BMP_temperature;BMP_pressure;BME280_temperature;BME280_humidity;BME280_pressure;Samples;Min_cycle;Max_cycle;Signal;HPM_P1;HPM_P2
2024/02/10 00:03:28;;;;;;;;;;;;;;;17.37;46.39;96857.78;10244675;28;802;-67
2024/02/10 00:08:24;;;;;;;;;;;;;;;17.35;46.34;96857.94;10244146;28;1963;-67
2024/02/10 00:13:20;;;;;;;;;;;;;;;17.33;46.29;96849.34;10244108;28;918;-67
2024/02/10 00:18:18;;;;;;;;;;;;;;;17.32;46.42;96852.94;10244043;28;944;-67
2024/02/10 00:23:14;;;;;;;;;;;;;;;17.33;46.31;96846.72;10243307;28;1343;-67
2024/02/10 00:28:10;;;;;;;;;;;;;;;17.31;46.57;96843.38;10244283;28;1898;-67
2024/02/10 00:33:07;;;;;;;;;;;;;;;17.29;46.11;96845.28;10244139;28;1118;-67
2024/02/10 00:38:04;;;;;;;;;;;;;;;17.26;46.53;96849.03;10243085;28;810;-67
2024/02/10 00:43:00;;;;;;;;;;;;;;;17.25;46.53;96836.84;10243589;28;841;-67
2024/02/10 00:47:57;;;;;;;;;;;;;;;17.25;46.42;96843.91;10244614;28;956;-67
2024/02/10 00:52:53;;;;;;;;;;;;;;;17.21;46.42;96846.00;10243256;28;1915;-68
2024/02/10 00:57:49;;;;;;;;;;;;;;;17.20;46.67;96843.47;10243299;28;871;-67
2024/02/10 01:02:45;;;;;;;;;;;;;;;17.20;46.45;96846.13;10243183;28;880;-67
2024/02/10 01:07:42;;;;;;;;;;;;;;;17.17;46.45;96847.22;10242415;28;1237;-67
2024/02/10 01:12:38;;;;;;;;;;;;;;;17.16;46.81;96844.69;10244973;28;1951;-67
2024/02/10 01:17:34;;;;;;;;;;;;;;;17.14;46.51;96844.03;10251135;28;900;-67
2024/02/10 01:22:30;;;;;;;;;;;;;;;17.12;46.61;96846.78;10250412;28;782;-67
2024/02/10 01:27:26;;;;;;;;;;;;;;;17.11;46.53;96847.75;10250703;28;810;-67
2024/02/10 01:32:23;;;;;;;;;;;;;;;17.09;46.60;96850.50;10250129;28;1902;-67
2024/02/10 01:37:19;;;;;;;;;;;;;;;17.06;46.57;96853.41;10249047;28;894;-67
2024/02/10 01:42:15;;;;;;;;;;;;;;;17.06;46.61;96858.69;10249554;28;779;-67
2024/02/10 01:47:10;;;;;;;;;;;;;;;17.05;46.63;96858.78;10249432;28;771;-67
2024/02/10 01:52:06;;;;;;;;;;;;;;;17.04;46.80;96860.59;10249326;28;1914;-67
2024/02/10 01:57:02;;;;;;;;;;;;;;;17.02;46.68;96854.63;10249731;28;803;-67
2024/02/10 02:01:58;;;;;;;;;;;;;;;17.01;46.85;96860.88;10248768;28;946;-67
2024/02/10 02:06:54;;;;;;;;;;;;;;;17.00;46.81;96855.72;10248706;28;917;-67
2024/02/10 02:11:51;;;;;;;;;;;;;;;16.98;46.68;96847.16;10248349;28;1965;-67
2024/02/10 02:16:48;;;;;;;;;;;;;;;16.97;46.69;96837.56;10249022;28;890;-67
2024/02/10 02:21:44;;;;;;;;;;;;;;;16.95;46.94;96842.13;10248098;28;774;-67
2024/02/10 02:26:41;;;;;;;;;;;;;;;16.95;46.87;96850.03;10247886;28;960;-67
2024/02/10 02:31:37;;;;;;;;;;;;;;;16.93;46.95;96850.16;10247794;28;1922;-67
2024/02/10 02:36:33;;;;;;;;;;;;;;;16.93;46.76;96846.72;10247773;28;842;-67
2024/02/10 02:41:29;;;;;;;;;;;;;;;16.91;46.89;96851.25;10247571;28;862;-67
2024/02/10 02:46:26;;;;;;;;;;;;;;;16.89;46.67;96846.13;10247604;28;1472;-67
2024/02/10 02:51:22;;;;;;;;;;;;;;;16.86;46.74;96847.22;10247050;28;1981;-67
2024/02/10 02:56:18;;;;;;;;;;;;;;;16.86;46.75;96851.66;10247464;28;928;-67
2024/02/10 03:01:15;;;;;;;;;;;;;;;16.85;46.80;96842.94;10246541;28;904;-67
2024/02/10 03:06:11;;;;;;;;;;;;;;;16.84;47.01;96838.63;10246815;28;849;-67
2024/02/10 03:11:07;;;;;;;;;;;;;;;16.83;46.97;96846.66;10246690;28;1957;-67
2024/02/10 03:16:04;;;;;;;;;;;;;;;16.81;46.77;96844.16;10245998;28;755;-67
2024/02/10 03:21:00;;;;;;;;;;;;;;;16.79;46.86;96827.69;10245736;28;1064;-67
2024/02/10 03:26:01;;;;;;;;;;;;;;;16.79;46.79;96830.31;10245607;28;802;-67
2024/02/10 03:30:57;;;;;;;;;;;;;;;16.78;47.00;96817.28;10246076;28;1956;-67
2024/02/10 03:35:57;;;;;;;;;;;;;;;16.78;47.08;96827.81;10245491;28;823;-67
2024/02/10 03:40:52;;;;;;;;;;;;;;;16.76;46.89;96825.25;10245052;28;951;-67
2024/02/10 03:45:48;;;;;;;;;;;;;;;16.75;46.94;96826.25;10244925;28;771;-67
2024/02/10 03:50:44;;;;;;;;;;;;;;;16.74;46.99;96821.94;10245555;28;1910;-67
2024/02/10 03:55:41;;;;;;;;;;;;;;;16.74;47.03;96815.84;10244616;28;934;-67
2024/02/10 04:00:38;;;;;;;;;;;;;;;16.72;46.87;96815.97;10244737;28;880;-67
2024/02/10 04:05:34;;;;;;;;;;;;;;;16.71;46.99;96821.38;10245108;28;861;-67
2024/02/10 04:10:30;;;;;;;;;;;;;;;16.70;47.03;96817.91;10244014;28;1902;-67
2024/02/10 04:15:27;;;;;;;;;;;;;;;16.70;47.07;96809.19;10244114;28;922;-67
2024/02/10 04:20:25;;;;;;;;;;;;;;;16.68;46.83;96809.31;10243936;28;882;-67
2024/02/10 04:25:21;;;;;;;;;;;;;;;16.68;46.89;96813.75;10244477;28;827;-67
2024/02/10 04:30:19;;;;;;;;;;;;;;;16.65;46.93;96812.19;10243158;28;1965;-67
2024/02/10 04:35:15;;;;;;;;;;;;;;;16.64;47.14;96811.38;10243949;28;933;-67
2024/02/10 04:40:12;;;;;;;;;;;;;;;16.63;46.98;96804.44;10243919;28;885;-67
2024/02/10 04:45:08;;;;;;;;;;;;;;;16.62;46.89;96801.94;10244194;28;870;-67
2024/02/10 04:50:04;;;;;;;;;;;;;;;16.62;47.11;96807.22;10248931;28;1967;-67
2024/02/10 04:55:00;;;;;;;;;;;;;;;16.65;46.86;96815.66;10251164;28;1129;-67
2024/02/10 04:59:55;;;;;;;;;;;;;;;16.67;46.78;96814.72;10251919;28;849;-67
2024/02/10 05:04:51;;;;;;;;;;;;;;;16.68;46.84;96806.69;10251029;28;845;-67
2024/02/10 05:09:47;;;;;;;;;;;;;;;16.69;46.79;96812.75;10250955;28;1898;-67
2024/02/10 05:14:43;;;;;;;;;;;;;;;16.71;46.92;96810.84;10250612;28;929;-67
2024/02/10 05:19:39;;;;;;;;;;;;;;;16.75;46.94;96810.47;10251090;28;786;-67
2024/02/10 05:24:35;;;;;;;;;;;;;;;16.77;46.74;96805.94;10250283;28;759;-67
2024/02/10 05:29:33;;;;;;;;;;;;;;;16.81;46.75;96809.13;10250240;28;1906;-67
2024/02/10 05:34:29;;;;;;;;;;;;;;;16.87;46.86;96805.94;10249998;28;779;-67
2024/02/10 05:39:25;;;;;;;;;;;;;;;16.89;46.84;96798.78;10249982;28;850;-67
2024/02/10 05:44:22;;;;;;;;;;;;;;;16.94;46.68;96803.63;10250153;28;851;-67
2024/02/10 05:49:21;;;;;;;;;;;;;;;16.97;46.67;96806.00;10249971;28;1922;-67
2024/02/10 05:54:17;;;;;;;;;;;;;;;17.00;46.66;96814.47;10249112;28;883;-67
2024/02/10 05:59:13;;;;;;;;;;;;;;;17.03;46.70;96811.56;10248498;28;961;-68
2024/02/10 06:04:09;;;;;;;;;;;;;;;17.07;46.67;96812.13;10249594;28;975;-68
2024/02/10 06:09:07;;;;;;;;;;;;;;;17.08;46.76;96821.69;10248926;28;1967;-67
2024/02/10 06:14:04;;;;;;;;;;;;;;;17.11;46.57;96831.97;10248483;28;870;-67
2024/02/10 06:19:00;;;;;;;;;;;;;;;17.15;46.73;96843.88;10248810;28;850;-68
2024/02/10 06:23:58;;;;;;;;;;;;;;;17.18;46.68;96850.66;10248073;28;837;-68
2024/02/10 06:28:54;;;;;;;;;;;;;;;17.20;46.58;96849.56;10248312;28;1953;-71
2024/02/10 06:33:52;;;;;;;;;;;;;;;17.22;46.70;96860.81;10247653;28;1135;-67
2024/02/10 06:38:48;;;;;;;;;;;;;;;17.23;46.49;96865.09;10247342;28;962;-68
2024/02/10 06:43:44;;;;;;;;;;;;;;;17.25;46.66;96865.81;10247845;28;906;-68
2024/02/10 06:48:41;;;;;;;;;;;;;;;17.25;46.65;96867.59;10247029;28;1925;-67
2024/02/10 06:53:37;;;;;;;;;;;;;;;17.28;46.48;96873.44;10247182;28;871;-67
2024/02/10 06:58:32;;;;;;;;;;;;;;;17.29;46.60;96885.66;10247358;28;933;-70
2024/02/10 07:03:31;;;;;;;;;;;;;;;17.33;46.49;96890.63;10245922;28;843;-67
2024/02/10 07:08:29;;;;;;;;;;;;;;;17.33;46.56;96891.47;10246296;28;1882;-68
2024/02/10 07:13:25;;;;;;;;;;;;;;;17.34;46.61;96893.13;10245284;28;970;-67
2024/02/10 07:18:21;;;;;;;;;;;;;;;17.37;46.57;96897.28;10246573;28;862;-68
2024/02/10 07:23:16;;;;;;;;;;;;;;;17.37;46.75;96897.28;10245770;28;797;-68
2024/02/10 07:28:12;;;;;;;;;;;;;;;17.38;46.92;96909.50;10245581;28;862;-67
2024/02/10 07:33:08;;;;;;;;;;;;;;;17.38;46.88;96915.59;10245708;28;1942;-67
2024/02/10 07:38:04;;;;;;;;;;;;;;;17.38;46.90;96922.66;10244764;28;863;-68
2024/02/10 07:43:00;;;;;;;;;;;;;;;17.39;46.81;96929.59;10245014;28;807;-68
2024/02/10 07:47:57;;;;;;;;;;;;;;;17.37;46.88;96929.75;10244879;28;984;-68
2024/02/10 07:52:53;;;;;;;;;;;;;;;17.36;46.77;96929.84;10244881;28;1902;-67
2024/02/10 07:57:51;;;;;;;;;;;;;;;17.36;46.87;96938.59;10244575;28;871;-68
2024/02/10 08:02:47;;;;;;;;;;;;;;;17.33;47.06;96938.03;10244415;28;886;-71
2024/02/10 08:07:42;;;;;;;;;;;;;;;17.32;46.99;96937.19;10243695;28;1489;-70
2024/02/10 08:12:38;;;;;;;;;;;;;;;17.30;47.02;96939.94;10244649;28;1898;-68
2024/02/10 08:17:36;;;;;;;;;;;;;;;17.30;47.02;96945.22;10244703;28;867;-67
2024/02/10 08:22:34;;;;;;;;;;;;;;;17.30;46.73;96945.22;10243797;28;867;-67
2024/02/10 08:27:31;;;;;;;;;;;;;;;17.29;46.73;96943.56;10244597;28;854;-67
2024/02/10 08:32:29;;;;;;;;;;;;;;;17.30;46.78;96954.91;10244610;28;1894;-67
2024/02/10 08:37:29;;;;;;;;;;;;;;;17.31;46.79;96949.50;10244398;28;857;-67
2024/02/10 08:42:27;;;;;;;;;;;;;;;17.31;46.64;96952.13;10243644;28;915;-67
2024/02/10 08:47:28;;;;;;;;;;;;;;;17.33;46.53;96945.94;10244100;28;857;-67
2024/02/10 08:52:24;;;;;;;;;;;;;;;17.34;46.62;96944.94;10243397;28;1906;-67
2024/02/10 08:57:25;;;;;;;;;;;;;;;17.33;46.58;96943.28;10243375;28;949;-67
2024/02/10 09:02:22;;;;;;;;;;;;;;;17.34;46.68;96947.59;10243863;28;860;-67
2024/02/10 09:07:18;;;;;;;;;;;;;;;17.35;46.69;96949.25;10243154;28;881;-67
2024/02/10 09:12:16;;;;;;;;;;;;;;;17.34;46.59;96951.03;10243652;28;1949;-67
2024/02/10 09:17:12;;;;;;;;;;;;;;;17.36;46.39;96954.38;10242920;28;986;-67
2024/02/10 09:22:09;;;;;;;;;;;;;;;17.36;46.41;96948.28;10242908;28;1028;-68
2024/02/10 09:27:09;;;;;;;;;;;;;;;17.37;46.49;96956.06;10243690;28;868;-71
2024/02/10 09:32:04;;;;;;;;;;;;;;;17.38;46.57;96951.63;10243542;28;2796;-68
2024/02/10 09:37:00;;;;;;;;;;;;;;;17.38;46.59;96962.16;10250364;28;890;-68
2024/02/10 09:42:00;;;;;;;;;;;;;;;17.39;46.41;96948.84;10249915;28;921;-67
2024/02/10 09:46:57;;;;;;;;;;;;;;;17.39;46.33;96950.66;10249528;28;974;-68
2024/02/10 09:51:52;;;;;;;;;;;;;;;17.40;46.29;96947.91;10250134;28;1918;-67
2024/02/10 09:56:50;;;;;;;;;;;;;;;17.40;46.37;96947.91;10249768;28;835;-68
2024/02/10 10:01:46;;;;;;;;;;;;;;;17.41;46.40;96946.09;10250123;28;871;-68
2024/02/10 10:06:44;;;;;;;;;;;;;;;17.41;46.41;96951.34;10248862;28;877;-68
2024/02/10 10:11:41;;;;;;;;;;;;;;;17.42;46.36;96950.38;10247928;28;1918;-68
2024/02/10 10:16:36;;;;;;;;;;;;;;;17.42;46.37;96953.00;10248345;28;974;-68
2024/02/10 10:21:32;;;;;;;;;;;;;;;17.44;46.38;96956.34;10248199;28;769;-68
2024/02/10 10:26:28;;;;;;;;;;;;;;;17.43;46.42;96945.00;10248629;28;898;-68
2024/02/10 10:31:25;;;;;;;;;;;;;;;17.46;46.28;96941.25;10247812;28;1910;-68
2024/02/10 10:36:21;;;;;;;;;;;;;;;17.46;46.34;96944.72;10247650;28;875;-68
2024/02/10 10:41:20;;;;;;;;;;;;;;;17.48;46.30;96936.72;10247413;28;901;-68
2024/02/10 10:46:17;;;;;;;;;;;;;;;17.49;46.29;96933.91;10246060;28;853;-68
2024/02/10 10:51:12;;;;;;;;;;;;;;;17.50;46.24;96924.22;10246698;28;1922;-69
2024/02/10 10:56:08;;;;;;;;;;;;;;;17.52;46.06;96933.66;10247313;28;878;-68
2024/02/10 11:01:05;;;;;;;;;;;;;;;17.52;46.02;96923.13;10246525;28;968;-72
2024/02/10 11:06:06;;;;;;;;;;;;;;;17.54;46.04;96917.72;10246812;28;862;-68
2024/02/10 11:11:03;;;;;;;;;;;;;;;17.55;46.09;96908.03;10246087;28;1901;-68
2024/02/10 11:15:59;;;;;;;;;;;;;;;17.57;45.80;96903.47;10245790;28;881;-68
2024/02/10 11:20:55;;;;;;;;;;;;;;;17.58;45.94;96905.13;10245640;28;957;-74
2024/02/10 11:25:52;;;;;;;;;;;;;;;17.58;45.92;96905.97;10245463;28;871;-68
2024/02/10 11:30:48;;;;;;;;;;;;;;;17.58;46.22;96903.34;10245064;28;1906;-68
2024/02/10 11:35:46;;;;;;;;;;;;;;;17.55;46.14;96900.13;10246320;28;922;-68
2024/02/10 11:40:42;;;;;;;;;;;;;;;17.54;46.17;96907.19;10245471;28;953;-68
2024/02/10 11:45:38;;;;;;;;;;;;;;;17.56;46.13;96897.38;10244153;28;851;-68
2024/02/10 11:50:42;;;;;;;;;;;;;;;17.59;46.09;96902.34;10244542;28;1989;-68
2024/02/10 11:55:41;;;;;;;;;;;;;;;17.59;46.19;96901.53;10244743;28;855;-68
2024/02/10 12:00:37;;;;;;;;;;;;;;;17.60;46.01;96893.47;10243777;28;1171;-68
2024/02/10 12:05:34;;;;;;;;;;;;;;;17.63;45.95;96895.00;10244182;28;938;-70
2024/02/10 12:10:30;;;;;;;;;;;;;;;17.65;45.95;96882.53;10243138;28;1959;-68
2024/02/10 12:15:26;;;;;;;;;;;;;;;17.65;45.89;96872.84;10241767;28;1105;-68
2024/02/10 12:20:23;;;;;;;;;;;;;;;17.68;45.76;96882.28;10243844;28;838;-68
2024/02/10 12:25:19;;;;;;;;;;;;;;;17.70;45.86;96881.16;10243761;28;853;-68
2024/02/10 12:30:15;;;;;;;;;;;;;;;17.74;45.82;96879.13;10243467;28;1964;-68
2024/02/10 12:35:16;;;;;;;;;;;;;;;17.78;45.66;96888.38;10243636;28;794;-67
2024/02/10 12:40:12;;;;;;;;;;;;;;;17.79;45.71;96894.50;10243523;28;961;-68
2024/02/10 12:45:08;;;;;;;;;;;;;;;17.74;45.87;96879.94;10243822;28;814;-68
2024/02/10 12:50:07;;;;;;;;;;;;;;;17.78;45.73;96885.75;10243230;28;1918;-68
2024/02/10 12:55:03;;;;;;;;;;;;;;;17.78;45.90;96887.56;10243216;28;779;-68
2024/02/10 13:00:18;;;;;;;;;;;;;;;17.85;45.83;96872.91;10243086;28;976;-67
2024/02/10 13:05:14;;;;;;;;;;;;;;;17.82;45.79;96881.94;10243886;28;822;-68
2024/02/10 13:10:18;;;;;;;;;;;;;;;17.81;45.87;96885.50;10247327;28;1894;-69
2024/02/10 13:15:14;;;;;;;;;;;;;;;17.99;45.55;96877.78;10251216;28;886;-68
2024/02/10 13:20:12;;;;;;;;;;;;;;;18.07;45.27;96867.38;10250391;28;902;-68
2024/02/10 13:25:08;;;;;;;;;;;;;;;18.11;45.29;96857.41;10250226;28;748;-68
2024/02/10 13:30:08;;;;;;;;;;;;;;;18.21;45.23;96857.38;10249876;28;1973;-68
2024/02/10 13:35:04;;;;;;;;;;;;;;;18.24;45.30;96851.84;10250567;28;925;-68
2024/02/10 14:00:58;;;;;;;;;;;;;;;18.22;45.23;96840.59;10248515;28;657;-68
2024/02/10 14:10:57;;;;;;;;;;;;;;;18.16;45.38;96839.38;10248399;28;1953;-68
2024/02/10 14:15:56;;;;;;;;;;;;;;;18.12;45.40;96832.69;10248990;28;826;-68
2024/02/10 14:20:53;;;;;;;;;;;;;;;18.10;45.75;96826.72;10247735;28;906;-68
2024/02/10 14:25:49;;;;;;;;;;;;;;;18.06;45.63;96831.44;10248012;28;884;-68
2024/02/10 14:30:47;;;;;;;;;;;;;;;18.04;45.52;96832.56;10248149;28;1953;-67
2024/02/10 14:35:58;;;;;;;;;;;;;;;18.03;45.53;96833.53;10247848;28;821;-68
2024/02/10 14:40:54;;;;;;;;;;;;;;;17.98;45.49;96827.84;10247648;28;790;-68
2024/02/10 14:45:50;;;;;;;;;;;;;;;17.97;45.74;96842.81;10246648;28;798;-68
2024/02/10 14:50:46;;;;;;;;;;;;;;;17.94;45.65;96843.09;10248146;28;1914;-68
2024/02/10 14:55:42;;;;;;;;;;;;;;;17.92;45.53;96845.03;10247323;28;834;-68
2024/02/10 15:00:38;;;;;;;;;;;;;;;17.90;45.54;96847.00;10248026;28;1554;-68
2024/02/10 15:05:34;;;;;;;;;;;;;;;17.87;45.67;96836.72;10246877;28;841;-68
2024/02/10 15:10:30;;;;;;;;;;;;;;;17.85;45.78;96844.75;10246678;28;1890;-68
2024/02/10 15:15:27;;;;;;;;;;;;;;;17.87;45.92;96852.53;10246550;28;758;-68
2024/02/10 15:20:26;;;;;;;;;;;;;;;17.84;45.67;96847.53;10246286;28;898;-68
2024/02/10 15:25:24;;;;;;;;;;;;;;;17.84;45.79;96842.25;10246152;28;767;-68
2024/02/10 15:30:20;;;;;;;;;;;;;;;17.83;45.75;96849.31;10244964;28;1903;-69
2024/02/10 15:35:16;;;;;;;;;;;;;;;17.83;45.91;96851.97;10245369;28;810;-68
2024/02/10 15:40:20;;;;;;;;;;;;;;;17.83;45.84;96853.78;10245068;28;810;-68
2024/02/10 15:45:17;;;;;;;;;;;;;;;17.82;45.78;96847.69;10246074;28;811;-68
2024/02/10 15:50:13;;;;;;;;;;;;;;;17.81;45.79;96838.09;10244241;28;1914;-68
2024/02/10 15:55:09;;;;;;;;;;;;;;;17.81;45.91;96842.53;10244544;28;764;-68
2024/02/10 16:00:05;;;;;;;;;;;;;;;17.82;45.75;96844.22;10245054;28;863;-68
2024/02/10 16:05:01;;;;;;;;;;;;;;;17.81;45.65;96840.72;10244892;28;993;-68
2024/02/10 16:09:56;;;;;;;;;;;;;;;17.82;45.73;96841.59;10244286;28;1952;-68
2024/02/10 16:14:52;;;;;;;;;;;;;;;17.82;45.73;96838.94;10244863;28;818;-68
2024/02/10 16:19:48;;;;;;;;;;;;;;;17.89;46.03;96842.66;10244558;28;868;-67
2024/02/10 16:24:45;;;;;;;;;;;;;;;17.94;46.29;96837.81;10244006;28;860;-67
2024/02/10 16:29:41;;;;;;;;;;;;;;;17.95;46.63;96847.41;10244189;28;1898;-67
2024/02/10 16:34:38;;;;;;;;;;;;;;;17.96;46.66;96849.06;10243620;28;868;-67
2024/02/10 16:39:34;;;;;;;;;;;;;;;17.98;46.74;96849.75;10243497;28;894;-68
2024/02/10 16:44:30;;;;;;;;;;;;;;;18.00;46.79;96853.09;10248136;28;1159;-67
2024/02/10 16:49:30;;;;;;;;;;;;;;;18.02;46.83;96848.50;10251527;28;1948;-67
2024/02/10 16:54:26;;;;;;;;;;;;;;;18.03;46.88;96844.09;10252053;28;957;-67
2024/02/10 16:59:22;;;;;;;;;;;;;;;18.04;46.74;96849.19;10251235;28;842;-67
2024/02/10 17:04:18;;;;;;;;;;;;;;;18.05;46.92;96845.63;10251945;28;807;-67
2024/02/10 17:09:14;;;;;;;;;;;;;;;18.08;46.84;96847.13;10251396;28;1894;-68
2024/02/10 17:14:10;;;;;;;;;;;;;;;18.09;46.80;96846.97;10250628;28;1671;-67
2024/02/10 17:19:09;;;;;;;;;;;;;;;18.09;46.72;96846.16;10250650;28;984;-67
2024/02/10 17:24:06;;;;;;;;;;;;;;;18.10;46.78;96848.66;10250269;28;839;-67
2024/02/10 17:29:05;;;;;;;;;;;;;;;18.14;46.77;96846.56;10249741;28;1945;-67
2024/02/10 17:34:01;;;;;;;;;;;;;;;18.14;46.54;96849.22;10249876;28;859;-67
2024/02/10 17:39:00;;;;;;;;;;;;;;;18.14;46.63;96855.31;10249828;28;779;-67
2024/02/10 17:43:56;;;;;;;;;;;;;;;18.14;46.78;96855.31;10249452;28;879;-67
2024/02/10 17:48:52;;;;;;;;;;;;;;;18.17;46.65;96856.84;10249421;28;1959;-67
2024/02/10 17:53:48;;;;;;;;;;;;;;;18.16;46.67;96853.38;10248560;28;798;-67
2024/02/10 17:58:46;;;;;;;;;;;;;;;18.17;46.65;96864.75;10249626;28;822;-67
2024/02/10 18:03:42;;;;;;;;;;;;;;;18.21;46.72;96854.75;10249389;28;1134;-71
2024/02/10 18:08:39;;;;;;;;;;;;;;;18.18;46.57;96853.22;10249916;28;1890;-67
2024/02/10 18:13:35;;;;;;;;;;;;;;;18.21;46.70;96854.75;10248423;28;861;-67
2024/02/10 18:18:31;;;;;;;;;;;;;;;18.22;46.79;96848.50;10248870;28;834;-68
2024/02/10 18:23:30;;;;;;;;;;;;;;;18.23;46.77;96845.72;10248654;28;907;-67
2024/02/10 18:28:29;;;;;;;;;;;;;;;18.23;46.59;96847.53;10247849;28;847;-67
2024/02/10 18:33:25;;;;;;;;;;;;;;;18.24;46.72;96844.75;10248668;28;1953;-67
2024/02/10 18:38:24;;;;;;;;;;;;;;;18.26;46.76;96844.59;10247531;28;1032;-67
2024/02/10 18:43:20;;;;;;;;;;;;;;;18.25;46.74;96835.03;10247219;28;838;-67
2024/02/10 18:48:17;;;;;;;;;;;;;;;18.25;46.95;96835.03;10247110;28;1144;-67
2024/02/10 18:53:14;;;;;;;;;;;;;;;18.27;46.73;96838.38;10247425;28;1914;-67
2024/02/10 18:58:10;;;;;;;;;;;;;;;18.25;46.69;96835.88;10247657;28;850;-67
2024/02/10 19:03:06;;;;;;;;;;;;;;;18.27;46.61;96826.03;10246586;28;794;-68
2024/02/10 19:08:02;;;;;;;;;;;;;;;18.27;46.68;96826.03;10245956;28;838;-67
2024/02/10 19:12:58;;;;;;;;;;;;;;;18.29;46.60;96829.34;10246657;28;1898;-67
2024/02/10 19:17:54;;;;;;;;;;;;;;;18.30;46.58;96831.00;10246540;28;855;-67
2024/02/10 19:22:52;;;;;;;;;;;;;;;18.30;46.60;96841.56;10245705;28;879;-67
2024/02/10 19:27:48;;;;;;;;;;;;;;;18.32;46.39;96838.78;10245498;28;949;-67
2024/02/10 19:32:53;;;;;;;;;;;;;;;18.32;46.73;96831.72;10191281;28;1225;-66
2024/02/10 19:37:49;;;;;;;;;;;;;;;18.33;46.62;96840.44;10191356;28;870;-66
2024/02/10 19:42:45;;;;;;;;;;;;;;;18.34;46.58;96850.03;10190746;28;811;-66
2024/02/10 19:47:41;;;;;;;;;;;;;;;18.34;46.51;96850.88;10191036;28;845;-66
2024/02/10 19:52:37;;;;;;;;;;;;;;;18.35;46.64;96841.16;10191504;28;1975;-66
2024/02/10 19:57:33;;;;;;;;;;;;;;;18.35;46.67;96838.50;10191470;28;857;-66
2024/02/10 20:02:30;;;;;;;;;;;;;;;18.35;46.45;96849.06;10190874;28;809;-66
2024/02/10 20:07:30;;;;;;;;;;;;;;;18.35;46.38;96841.97;10190489;28;988;-66
2024/02/10 20:12:27;;;;;;;;;;;;;;;18.36;46.63;96838.34;10190208;28;1890;-66
2024/02/10 20:17:28;;;;;;;;;;;;;;;18.36;46.50;96830.44;10190208;28;856;-66
2024/02/10 20:22:24;;;;;;;;;;;;;;;18.39;46.66;96837.22;10190051;28;877;-66
2024/02/10 20:27:20;;;;;;;;;;;;;;;18.38;46.61;96835.59;10190765;28;869;-66
2024/02/10 20:32:18;;;;;;;;;;;;;;;18.38;46.52;96820.59;10190903;28;1894;-66
2024/02/10 20:37:16;;;;;;;;;;;;;;;18.39;46.63;96805.59;10189697;28;873;-66
2024/02/10 20:42:12;;;;;;;;;;;;;;;18.38;46.58;96799.50;10173806;28;1008;-66
2024/02/10 20:47:11;;;;;;;;;;;;;;;18.38;46.66;96796.84;10163336;28;887;-66
2024/02/10 20:52:07;;;;;;;;;;;;;;;18.37;46.74;96802.28;10163158;28;1914;-66
2024/02/10 20:57:05;;;;;;;;;;;;;;;18.37;46.41;96802.28;10163134;28;821;-66
2024/02/10 21:02:01;;;;;;;;;;;;;;;18.36;46.55;96797.97;10163696;28;1580;-66
2024/02/10 21:06:57;;;;;;;;;;;;;;;18.36;46.41;96792.69;10162203;28;1011;-66
2024/02/10 21:11:53;;;;;;;;;;;;;;;18.35;46.52;96793.69;10162702;28;1973;-66
2024/02/10 21:16:49;;;;;;;;;;;;;;;18.36;46.65;96800.59;10162497;28;842;-66
2024/02/10 21:21:45;;;;;;;;;;;;;;;18.36;46.62;96813.78;10161707;28;778;-66
2024/02/10 21:26:41;;;;;;;;;;;;;;;18.35;46.63;96804.22;10162431;28;952;-67
2024/02/10 21:31:39;;;;;;;;;;;;;;;18.34;46.61;96802.56;10162236;28;1922;-66
2024/02/10 21:36:35;;;;;;;;;;;;;;;18.32;46.52;96802.72;10161826;28;845;-66
2024/02/10 21:41:31;;;;;;;;;;;;;;;18.32;46.70;96807.97;10162012;28;802;-66
2024/02/10 21:46:26;;;;;;;;;;;;;;;18.32;46.51;96809.78;10161210;28;937;-66
2024/02/10 21:51:22;;;;;;;;;;;;;;;18.32;46.60;96812.44;10160580;28;1882;-66
2024/02/10 21:56:19;;;;;;;;;;;;;;;18.30;46.51;96817.81;10160360;28;854;-66
2024/02/10 22:01:17;;;;;;;;;;;;;;;18.28;46.41;96824.22;10161496;28;853;-66
2024/02/10 22:06:13;;;;;;;;;;;;;;;18.26;46.43;96821.75;10161163;28;833;-66
2024/02/10 22:11:09;;;;;;;;;;;;;;;18.26;46.60;96828.78;10159793;28;1964;-66
2024/02/10 22:16:05;;;;;;;;;;;;;;;18.24;46.76;96818.41;10160326;28;777;-66
2024/02/10 22:21:02;;;;;;;;;;;;;;;18.22;46.52;96806.34;10160780;28;921;-66
2024/02/10 22:25:58;;;;;;;;;;;;;;;18.20;46.57;96805.63;10160566;28;955;-66
2024/02/10 22:30:54;;;;;;;;;;;;;;;18.18;46.55;96811.03;10159737;28;1922;-66
2024/02/10 22:35:51;;;;;;;;;;;;;;;18.16;46.42;96811.19;10160274;28;833;-66
2024/02/10 22:40:47;;;;;;;;;;;;;;;18.14;46.64;96804.41;10159581;28;872;-66
2024/02/10 22:45:44;;;;;;;;;;;;;;;18.12;46.76;96801.88;10159379;28;872;-66
2024/02/10 22:50:45;;;;;;;;;;;;;;;18.10;46.79;96805.63;10159714;28;1907;-66
2024/02/10 22:55:44;;;;;;;;;;;;;;;18.09;46.67;96811.88;10159064;28;868;-66
2024/02/10 23:00:43;;;;;;;;;;;;;;;18.06;46.55;96809.53;10158402;28;913;-66
2024/02/10 23:05:39;;;;;;;;;;;;;;;18.03;46.54;96808.00;10159114;28;865;-66
2024/02/10 23:10:35;;;;;;;;;;;;;;;18.00;46.42;96797.75;10158735;28;1902;-66
2024/02/10 23:15:31;;;;;;;;;;;;;;;17.99;46.60;96785.53;10159305;28;870;-66
2024/02/10 23:20:27;;;;;;;;;;;;;;;17.98;46.43;96796.22;10158353;28;893;-66
2024/02/10 23:25:22;;;;;;;;;;;;;;;17.96;46.58;96799.00;10159383;28;938;-66
2024/02/10 23:30:18;;;;;;;;;;;;;;;17.94;46.66;96788.56;10158408;28;1915;-66
2024/02/10 23:35:14;;;;;;;;;;;;;;;17.92;46.56;96806.34;10158125;28;787;-66
2024/02/10 23:40:13;;;;;;;;;;;;;;;17.89;46.71;96800.50;10158146;28;814;-66
2024/02/10 23:45:09;;;;;;;;;;;;;;;17.88;46.44;96798.88;10157901;28;941;-66
2024/02/10 23:50:07;;;;;;;;;;;;;;;17.87;46.49;96789.31;10158103;28;1906;-66
2024/02/10 23:55:06;;;;;;;;;;;;;;;17.85;46.66;96788.59;10157546;28;870;-66
